This is the latest recevied weather packets stored in our database for station/object KE8KMM. If no packets are shown the sender has not sent any weather packets the latest 10 day(s).
| Time | Temp. | Humidity | Pressure | Rain* | Wind** | Luminosity | Snow |
|---|---|---|---|---|---|---|---|
| 1777744358 | 7.22° C | 76% | 1015.7 hPa | 0 mm | - | 203 W/m² | - |
| 1777744056 | 6.67° C | 76% | 1015.9 hPa | 0 mm | - | 216 W/m² | - |
| 1777743753 | 6.67° C | 76% | 1015.8 hPa | 0 mm | - | 192 W/m² | - |
| 1777743450 | 6.67° C | 75% | 1015.9 hPa | 0 mm | - | 163 W/m² | - |
| 1777743147 | 7.22° C | 73% | 1015.6 hPa | 0 mm | - | 127 W/m² | - |
| 1777742845 | 7.78° C | 73% | 1015.6 hPa | 0 mm | - | 121 W/m² | - |
| 1777742541 | 7.78° C | 71% | 1015.5 hPa | 0 mm | - | 169 W/m² | - |
| 1777742237 | 8.89° C | 72% | 1015.5 hPa | 0 mm | - | 272 W/m² | - |
| 1777741934 | 8.89° C | 73% | 1015.5 hPa | 0 mm | - | 364 W/m² | - |
| 1777741631 | 8.33° C | 75% | 1015.6 hPa | 0 mm | - | 414 W/m² | - |
| 1777741328 | 7.78° C | 77% | 1015.6 hPa | 0 mm | - | 487 W/m² | - |
| 1777741024 | 6.67° C | 77% | 1015.7 hPa | 0 mm | - | 401 W/m² | - |
| 1777740721 | 6.67° C | 77% | 1015.7 hPa | 0 mm | - | 338 W/m² | - |
| 1777740417 | 6.67° C | 76% | 1015.9 hPa | 0 mm | - | 278 W/m² | - |
| 1777740115 | 6.67° C | 77% | 1016 hPa | 0 mm | - | 265 W/m² | - |
| 1777739810 | 6.67° C | 76% | 1016 hPa | 0 mm | - | 276 W/m² | - |
| 1777739507 | 6.67° C | 78% | 1015.8 hPa | 0 mm | - | 233 W/m² | - |
| 1777739204 | 6.67° C | 79% | 1016 hPa | 0 mm | - | 146 W/m² | - |
| 1777738901 | 6.11° C | 77% | 1015.9 hPa | 0 mm | - | 109 W/m² | - |
| 1777738598 | 6.11° C | 76% | 1015.8 hPa | 0 mm | - | 101 W/m² | - |
| 1777738295 | 6.67° C | 76% | 1016.2 hPa | 0 mm | - | 107 W/m² | - |
| 1777737993 | 6.67° C | 73% | 1015.6 hPa | 0 mm | - | 168 W/m² | - |
| 1777737691 | 7.78° C | 75% | 1015.8 hPa | 0 mm | - | 222 W/m² | - |
| 1777737390 | 6.67° C | 74% | 1015.8 hPa | 0 mm | - | 394 W/m² | - |
| 1777737086 | 6.67° C | 73% | 1015.5 hPa | 0 mm | - | 329 W/m² | - |
* Rain latest hour (hover to see other rain measurements)
** Current wind speed in m/s (hover to see current wind gust speed)